createdAt,value
2023-02-05T00:03:40.347Z,4.75
2023-02-05T00:07:53.002Z,4.22
2023-02-05T00:12:05.836Z,2.70
2023-02-05T00:16:22.288Z,4.82
2023-02-05T00:20:34.841Z,3.22
2023-02-05T00:24:47.334Z,3.65
2023-02-05T00:28:59.864Z,2.90
2023-02-05T00:33:12.323Z,4.32
2023-02-05T00:37:24.810Z,9.30
2023-02-05T00:41:37.253Z,5.88
2023-02-05T00:45:51.734Z,4.50
2023-02-05T00:50:04.662Z,4.07
2023-02-05T00:54:17.175Z,2.60
2023-02-05T00:58:30.210Z,4.28
2023-02-05T01:02:44.178Z,5.80
2023-02-05T01:06:56.679Z,2.95
2023-02-05T01:11:11.798Z,3.53
2023-02-05T01:15:24.290Z,2.63
2023-02-05T01:19:37.920Z,3.58
2023-02-05T01:23:50.951Z,3.22
2023-02-05T01:28:03.689Z,3.28
2023-02-05T01:32:16.214Z,2.67
2023-02-05T01:36:28.786Z,2.85
2023-02-05T01:40:42.116Z,3.03
2023-02-05T01:45:22.456Z,2.95
2023-02-05T01:49:41.177Z,2.45
2023-02-05T01:53:53.830Z,2.53
2023-02-05T01:58:06.566Z,2.60
2023-02-05T02:02:31.243Z,2.65
2023-02-05T02:06:43.818Z,2.15
2023-02-05T02:10:59.758Z,2.88
2023-02-05T02:15:20.480Z,2.58
2023-02-05T02:19:41.400Z,3.38
2023-02-05T02:24:03.171Z,3.00
2023-02-05T02:28:24.654Z,4.85
2023-02-05T02:32:42.924Z,2.72
2023-02-05T02:37:23.718Z,3.67
2023-02-05T02:42:04.272Z,3.35
2023-02-05T02:46:33.260Z,2.75
2023-02-05T02:50:58.520Z,2.50
2023-02-05T02:55:15.465Z,5.78
2023-02-05T02:59:31.610Z,2.90
2023-02-05T03:03:53.582Z,2.17
2023-02-05T03:08:23.093Z,2.42
2023-02-05T03:12:35.651Z,2.88
2023-02-05T03:16:48.206Z,3.60
2023-02-05T03:21:10.742Z,3.80
2023-02-05T03:25:24.691Z,3.33
2023-02-05T03:29:45.320Z,7.80
2023-02-05T03:34:09.757Z,2.45
2023-02-05T03:38:52.790Z,2.50
2023-02-05T03:43:12.439Z,2.63
2023-02-05T03:48:04.870Z,3.88
2023-02-05T03:57:06.391Z,2.33
2023-02-05T04:01:19.937Z,2.42
2023-02-05T04:05:34.210Z,2.42
2023-02-05T04:09:46.829Z,3.75
2023-02-05T04:14:00.157Z,2.58
2023-02-05T04:18:12.707Z,2.78
2023-02-05T04:22:25.203Z,3.38
2023-02-05T04:26:47.717Z,3.80
2023-02-05T04:31:00.194Z,4.60
2023-02-05T04:35:12.684Z,2.72
2023-02-05T04:39:25.198Z,2.42
2023-02-05T04:43:37.681Z,3.40
2023-02-05T04:47:50.233Z,3.03
2023-02-05T04:52:02.805Z,3.15
2023-02-05T04:56:18.243Z,2.75
2023-02-05T05:00:30.912Z,2.88
2023-02-05T05:04:43.845Z,2.83
2023-02-05T05:08:56.373Z,4.78
2023-02-05T05:13:08.862Z,3.00
2023-02-05T05:17:31.624Z,3.03
2023-02-05T05:21:44.075Z,4.60
2023-02-05T05:25:56.648Z,2.58
2023-02-05T05:30:10.382Z,2.75
2023-02-05T05:34:22.842Z,3.08
2023-02-05T05:38:36.382Z,3.63
2023-02-05T05:43:07.476Z,2.47
2023-02-05T05:47:20.662Z,2.55
2023-02-05T05:51:34.170Z,2.55
2023-02-05T05:55:46.715Z,3.50
2023-02-05T05:59:59.288Z,2.08
2023-02-05T06:04:11.794Z,2.65
2023-02-05T06:08:34.637Z,3.83
2023-02-05T06:12:47.159Z,3.90
2023-02-05T06:16:59.770Z,3.13
2023-02-05T06:21:12.350Z,2.83
2023-02-05T06:25:24.862Z,2.63
2023-02-05T06:29:38.946Z,2.28
2023-02-05T06:33:51.394Z,3.58
2023-02-05T06:38:03.862Z,3.00
2023-02-05T06:42:16.292Z,2.33
2023-02-05T06:46:28.799Z,4.88
2023-02-05T06:50:41.724Z,2.65
2023-02-05T06:54:54.236Z,2.95
2023-02-05T06:59:06.723Z,2.85
2023-02-05T07:03:19.185Z,4.05
2023-02-05T07:07:31.633Z,2.95
2023-02-05T07:11:44.046Z,5.25
2023-02-05T07:15:56.700Z,3.75
2023-02-05T07:20:09.873Z,4.15
2023-02-05T07:24:22.590Z,7.47
2023-02-05T07:28:35.023Z,3.53
2023-02-05T07:32:47.494Z,6.03
2023-02-05T07:36:59.922Z,3.47
2023-02-05T07:41:15.064Z,4.78
2023-02-05T07:45:27.654Z,3.30
2023-02-05T07:49:50.132Z,4.68
2023-02-05T07:54:08.251Z,3.67
2023-02-05T07:58:21.275Z,4.78
2023-02-05T08:02:33.778Z,5.00
2023-02-05T08:06:46.235Z,5.68
2023-02-05T08:11:06.051Z,3.33
2023-02-05T08:15:18.760Z,5.28
2023-02-05T08:19:32.270Z,3.78
2023-02-05T08:23:44.837Z,5.15
2023-02-05T08:28:06.233Z,4.18
2023-02-05T08:32:18.770Z,5.85
2023-02-05T08:36:31.966Z,4.85
2023-02-05T08:40:44.620Z,5.53
2023-02-05T08:45:09.817Z,4.07
2023-02-05T08:49:23.053Z,3.78
2023-02-05T08:53:35.556Z,5.38
2023-02-05T08:57:48.089Z,3.53
2023-02-05T09:02:09.121Z,4.47
2023-02-05T09:06:21.700Z,3.53
2023-02-05T09:10:36.028Z,4.05
2023-02-05T09:14:49.023Z,5.05
2023-02-05T09:19:02.336Z,4.97
2023-02-05T09:23:16.896Z,7.63
2023-02-05T09:27:29.508Z,5.07
2023-02-05T09:31:42.676Z,5.75
2023-02-05T09:36:10.826Z,4.32
2023-02-05T09:40:28.852Z,3.35
2023-02-05T09:45:17.571Z,3.58
2023-02-05T09:49:51.437Z,3.47
2023-02-05T09:54:25.935Z,10.40
2023-02-05T09:58:46.382Z,4.97
2023-02-05T10:03:07.642Z,4.03
2023-02-05T10:07:31.962Z,5.82
2023-02-05T10:12:15.226Z,5.53
2023-02-05T10:16:43.083Z,5.35
2023-02-05T10:21:32.672Z,5.47
2023-02-05T10:26:16.035Z,3.85
2023-02-05T10:30:31.973Z,4.10
2023-02-05T10:34:58.164Z,4.55
2023-02-05T10:39:17.654Z,3.03
2023-02-05T10:43:50.511Z,2.63
2023-02-05T10:48:36.985Z,4.82
2023-02-05T10:52:49.541Z,2.63
2023-02-05T10:57:02.621Z,3.30
2023-02-05T11:01:19.799Z,5.82
2023-02-05T11:05:42.409Z,4.07
2023-02-05T11:09:54.903Z,2.20
2023-02-05T11:14:08.529Z,3.20
2023-02-05T11:18:31.637Z,2.72
2023-02-05T11:22:46.702Z,2.38
2023-02-05T11:27:34.047Z,2.45
2023-02-05T11:31:46.729Z,3.25
2023-02-05T11:36:06.176Z,2.33
2023-02-05T11:44:52.800Z,2.95
2023-02-05T11:49:05.972Z,4.25
2023-02-05T11:53:20.515Z,2.78
2023-02-05T11:57:39.752Z,2.53
2023-02-05T12:02:29.221Z,2.10
2023-02-05T12:07:02.162Z,4.20
2023-02-05T12:12:22.223Z,3.17
2023-02-05T12:17:21.803Z,4.63
2023-02-05T12:21:45.639Z,3.83
2023-02-05T12:26:12.447Z,5.13
2023-02-05T12:31:05.190Z,2.80
2023-02-05T12:35:34.188Z,4.22
2023-02-05T12:44:25.661Z,4.10
2023-02-05T12:48:43.728Z,3.20
2023-02-05T12:53:02.291Z,4.32
2023-02-05T12:57:21.036Z,5.47
2023-02-05T13:01:50.964Z,4.43
2023-02-05T13:06:25.319Z,3.97
2023-02-05T13:10:56.759Z,5.55
2023-02-05T13:15:21.864Z,3.83
2023-02-05T13:19:41.751Z,5.65
2023-02-05T13:24:42.467Z,3.88
2023-02-05T13:29:09.420Z,5.70
2023-02-05T13:33:22.319Z,5.22
2023-02-05T13:38:19.628Z,7.65
2023-02-05T13:42:53.244Z,4.03
2023-02-05T13:47:24.677Z,5.88
2023-02-05T13:51:49.224Z,5.45
2023-02-05T13:56:31.936Z,3.53
2023-02-05T14:00:57.471Z,3.15
2023-02-05T14:05:11.836Z,6.25
2023-02-05T14:09:45.564Z,3.33
2023-02-05T14:14:24.216Z,6.30
2023-02-05T14:18:45.723Z,5.55
2023-02-05T14:23:03.511Z,4.18
2023-02-05T14:27:27.024Z,2.95
2023-02-05T14:31:48.640Z,3.20
2023-02-05T14:36:23.555Z,4.07
2023-02-05T14:40:37.067Z,3.42
2023-02-05T14:44:58.000Z,6.57
2023-02-05T14:49:25.803Z,6.70
2023-02-05T14:53:40.440Z,3.88
2023-02-05T14:58:05.059Z,3.83
2023-02-05T15:03:04.380Z,4.20
2023-02-05T15:07:25.047Z,12.98
2023-02-05T15:12:08.874Z,4.97
2023-02-05T15:16:22.675Z,6.65
2023-02-05T15:20:40.560Z,3.95
2023-02-05T15:24:54.577Z,4.65
2023-02-05T15:29:27.593Z,3.70
2023-02-05T15:33:50.511Z,7.82
2023-02-05T15:38:26.393Z,4.03
2023-02-05T15:42:46.643Z,9.75
2023-02-05T15:47:04.071Z,4.20
2023-02-05T15:51:34.286Z,4.72
2023-02-05T15:55:53.237Z,8.43
2023-02-05T16:00:23.500Z,4.05
2023-02-05T16:04:39.628Z,6.72
2023-02-05T16:08:53.410Z,7.07
2023-02-05T16:13:16.996Z,7.47
2023-02-05T16:17:40.448Z,6.70
2023-02-05T16:22:01.283Z,7.28
2023-02-05T16:26:47.618Z,6.28
2023-02-05T16:31:01.922Z,5.63
2023-02-05T16:35:42.230Z,8.20
2023-02-05T16:39:57.442Z,7.40
2023-02-05T16:44:32.735Z,6.82
2023-02-05T16:48:48.912Z,6.50
2023-02-05T16:53:01.456Z,7.75
2023-02-05T16:57:26.833Z,5.07
2023-02-05T17:01:44.043Z,4.85
2023-02-05T17:06:03.374Z,7.28
2023-02-05T17:14:54.561Z,4.03
2023-02-05T17:19:27.102Z,5.22
2023-02-05T17:23:39.776Z,6.60
2023-02-05T17:27:52.742Z,10.70
2023-02-05T17:32:05.878Z,9.00
2023-02-05T17:36:18.582Z,7.28
2023-02-05T17:40:31.181Z,11.52
2023-02-05T17:44:43.709Z,12.80
2023-02-05T17:48:56.323Z,11.27
2023-02-05T17:53:14.744Z,10.45
2023-02-05T17:57:27.209Z,9.68
2023-02-05T18:01:39.661Z,8.60
2023-02-05T18:05:52.088Z,6.93
2023-02-05T18:10:17.485Z,5.78
2023-02-05T18:14:30.210Z,6.00
2023-02-05T18:18:43.379Z,7.70
2023-02-05T18:22:55.944Z,8.65
2023-02-05T18:27:10.102Z,6.28
2023-02-05T18:31:22.923Z,9.60
2023-02-05T18:35:35.583Z,12.90
2023-02-05T18:39:48.819Z,8.43
2023-02-05T18:44:01.578Z,9.82
2023-02-05T18:48:14.088Z,10.27
2023-02-05T18:52:28.082Z,11.95
2023-02-05T18:56:40.648Z,6.68
2023-02-05T19:00:53.117Z,10.98
2023-02-05T19:05:05.689Z,11.15
2023-02-05T19:09:29.353Z,8.32
2023-02-05T19:13:42.971Z,10.38
2023-02-05T19:18:06.654Z,7.70
2023-02-05T19:22:19.261Z,7.35
2023-02-05T19:26:34.544Z,7.15
2023-02-05T19:30:47.847Z,8.55
2023-02-05T19:35:00.839Z,10.25
2023-02-05T19:39:15.234Z,8.10
2023-02-05T19:43:27.855Z,10.45
2023-02-05T19:47:40.375Z,10.30
2023-02-05T19:51:55.918Z,12.32
2023-02-05T19:56:13.948Z,10.73
2023-02-05T20:00:35.491Z,8.18
2023-02-05T20:04:48.187Z,10.98
2023-02-05T20:09:11.445Z,6.97
2023-02-05T20:13:31.874Z,6.28
2023-02-05T20:17:54.793Z,6.70
2023-02-05T20:22:08.068Z,9.80
2023-02-05T20:26:23.001Z,6.60
2023-02-05T20:30:53.962Z,5.57
2023-02-05T20:35:07.314Z,6.55
2023-02-05T20:39:31.300Z,5.70
2023-02-05T20:43:44.984Z,7.07
2023-02-05T20:47:57.489Z,6.53
2023-02-05T20:52:13.927Z,9.43
2023-02-05T20:56:29.577Z,9.13
2023-02-05T21:00:45.523Z,4.57
2023-02-05T21:04:57.968Z,7.10
2023-02-05T21:09:11.106Z,9.15
2023-02-05T21:13:24.900Z,6.03
2023-02-05T21:17:45.024Z,7.28
2023-02-05T21:21:57.819Z,7.22
2023-02-05T21:26:41.988Z,5.22
2023-02-05T21:31:07.404Z,4.47
2023-02-05T21:35:19.970Z,4.80
2023-02-05T21:39:32.818Z,5.32
2023-02-05T21:44:00.455Z,4.50
2023-02-05T21:48:12.991Z,3.15
2023-02-05T21:52:25.594Z,4.68
2023-02-05T21:56:41.623Z,4.43
2023-02-05T22:00:54.158Z,4.55
2023-02-05T22:05:07.361Z,4.20
2023-02-05T22:09:19.995Z,3.63
2023-02-05T22:13:47.168Z,5.30
2023-02-05T22:18:09.616Z,4.38
2023-02-05T22:22:22.710Z,4.80
2023-02-05T22:26:39.653Z,6.40
2023-02-05T22:31:00.645Z,6.07
2023-02-05T22:35:13.151Z,6.55
2023-02-05T22:39:25.577Z,4.80
2023-02-05T22:43:38.412Z,4.47
2023-02-05T22:47:50.878Z,3.90
2023-02-05T22:52:13.318Z,4.53
2023-02-05T22:56:27.588Z,4.63
2023-02-05T23:00:41.569Z,8.90
2023-02-05T23:04:54.132Z,5.28
2023-02-05T23:09:14.572Z,4.13
2023-02-05T23:13:27.054Z,5.05
2023-02-05T23:17:39.717Z,4.57
2023-02-05T23:21:52.276Z,6.03
2023-02-05T23:26:15.397Z,5.00
2023-02-05T23:30:28.011Z,3.33
2023-02-05T23:34:50.536Z,5.13
2023-02-05T23:39:03.183Z,5.75
2023-02-05T23:43:15.752Z,4.80
2023-02-05T23:47:28.270Z,4.15
2023-02-05T23:51:41.431Z,4.72
2023-02-05T23:55:55.311Z,5.40
